Time;durP1;ratioP1;P1;durP2;ratioP2;P2;SDS_P1;SDS_P2;PMS_P1;PMS_P2;Temp;Humidity;BMP_temperature;BMP_pressure;BME280_temperature;BME280_humidity;BME280_pressure;Samples;Min_cycle;Max_cycle;Signal;HPM_P1;HPM_P2
2022/09/24 00:02:00;;;;;;;20.27;10.55;;;13.00;99.90;;;;;;5063760;28;20049;-79
2022/09/24 00:04:26;;;;;;;18.00;11.02;;;13.00;99.90;;;;;;5063748;28;20059;-79
2022/09/24 00:06:52;;;;;;;18.17;10.48;;;13.00;99.90;;;;;;5063318;28;20123;-80
2022/09/24 00:09:20;;;;;;;17.33;11.55;;;13.00;99.90;;;;;;5079496;28;20045;-79
2022/09/24 00:11:48;;;;;;;17.88;10.48;;;13.00;99.90;;;;;;5063611;28;20032;-80
2022/09/24 00:14:15;;;;;;;20.02;12.10;;;13.00;99.90;;;;;;5083630;28;20082;-80
2022/09/24 00:16:42;;;;;;;17.38;10.77;;;13.00;99.90;;;;;;5083745;28;20060;-80
2022/09/24 00:19:09;;;;;;;19.08;11.27;;;13.00;99.90;;;;;;5066732;28;20040;-79
2022/09/24 00:21:36;;;;;;;22.70;11.63;;;13.00;99.90;;;;;;5083662;28;20036;-80
2022/09/24 00:24:07;;;;;;;18.83;11.80;;;13.00;99.90;;;;;;5066715;28;20033;-79
2022/09/24 00:26:51;;;;;;;18.70;11.52;;;13.00;99.90;;;;;;5067657;28;20032;-78
2022/09/24 00:29:23;;;;;;;15.25;10.30;;;13.00;99.90;;;;;;5066762;28;20028;-80
2022/09/24 00:31:50;;;;;;;18.75;11.05;;;13.30;99.90;;;;;;5069326;28;20184;-71
2022/09/24 00:34:17;;;;;;;22.33;12.68;;;13.00;99.90;;;;;;5058311;28;20032;-73
2022/09/24 00:36:45;;;;;;;25.02;13.27;;;13.00;99.90;;;;;;5041625;28;20115;-72
2022/09/24 00:39:12;;;;;;;20.15;12.90;;;13.10;99.90;;;;;;5025414;28;20069;-72
2022/09/24 00:41:39;;;;;;;26.80;13.85;;;13.10;99.90;;;;;;5058363;28;20520;-72
2022/09/24 00:44:46;;;;;;;21.35;12.45;;;13.10;99.90;;;;;;5058232;28;20480;-73
2022/09/24 00:47:27;;;;;;;19.40;12.35;;;13.10;99.90;;;;;;5058142;28;20080;-72
2022/09/24 00:50:09;;;;;;;24.13;12.32;;;13.10;99.90;;;;;;5041328;28;20072;-72
2022/09/24 00:52:39;;;;;;;23.23;13.68;;;13.10;99.90;;;;;;5041249;28;20048;-73
2022/09/24 00:55:06;;;;;;;25.30;12.57;;;13.10;99.90;;;;;;5057618;28;20044;-72
2022/09/24 00:57:32;;;;;;;22.75;13.10;;;13.10;99.90;;;;;;5041182;28;20032;-72
2022/09/24 00:59:58;;;;;;;27.13;13.18;;;13.10;99.90;;;;;;5058116;28;20048;-72
2022/09/24 01:02:23;;;;;;;22.30;13.02;;;13.20;99.90;;;;;;5057801;28;20089;-72
2022/09/24 01:04:49;;;;;;;20.67;12.88;;;13.20;99.90;;;;;;5057899;28;20438;-72
2022/09/24 01:07:15;;;;;;;23.60;13.18;;;13.20;99.90;;;;;;5057501;28;20050;-72
2022/09/24 01:09:41;;;;;;;25.25;12.30;;;13.10;99.90;;;;;;5024566;28;20040;-72
2022/09/24 01:12:17;;;;;;;22.42;12.75;;;13.20;99.90;;;;;;5040833;28;20403;-72
2022/09/24 01:14:55;;;;;;;24.58;13.82;;;13.20;99.90;;;;;;5057783;28;20388;-71
2022/09/24 01:17:55;;;;;;;28.60;14.27;;;13.20;99.90;;;;;;5057365;28;20170;-72
2022/09/24 01:20:40;;;;;;;23.55;14.57;;;13.20;99.90;;;;;;5051174;28;20183;-71
2022/09/24 01:23:36;;;;;;;24.70;14.18;;;13.20;99.90;;;;;;5057189;28;20048;-73
2022/09/24 01:26:23;;;;;;;20.02;13.05;;;13.20;99.90;;;;;;5039592;28;20045;-72
2022/09/24 01:28:55;;;;;;;20.95;13.73;;;13.20;99.90;;;;;;5056130;28;20076;-72
2022/09/24 01:31:24;;;;;;;24.38;14.05;;;13.20;99.90;;;;;;5056165;28;20082;-72
2022/09/24 01:33:53;;;;;;;20.48;13.63;;;13.20;99.90;;;;;;5056288;28;20446;-72
2022/09/24 01:36:21;;;;;;;22.42;14.45;;;13.20;99.90;;;;;;5056021;28;20036;-72
2022/09/24 01:38:50;;;;;;;20.52;13.70;;;13.10;99.90;;;;;;5056225;28;20032;-73
2022/09/24 01:41:17;;;;;;;19.23;13.57;;;13.20;99.90;;;;;;5056319;28;20392;-73
2022/09/24 01:43:44;;;;;;;24.55;14.35;;;13.20;99.90;;;;;;5055901;28;20101;-72
2022/09/24 01:46:11;;;;;;;21.17;14.10;;;13.20;99.90;;;;;;5055876;28;20036;-72
2022/09/24 01:48:38;;;;;;;25.58;13.80;;;13.10;99.90;;;;;;5039444;28;20105;-72
2022/09/24 01:51:09;;;;;;;26.35;14.05;;;13.10;99.90;;;;;;5055760;28;20145;-72
2022/09/24 01:54:06;;;;;;;23.42;13.05;;;13.10;99.90;;;;;;5055942;28;20036;-72
2022/09/24 01:56:50;;;;;;;24.33;13.00;;;13.10;99.90;;;;;;5055177;28;20561;-72
2022/09/24 01:59:23;;;;;;;24.13;13.85;;;13.10;99.90;;;;;;5055907;28;20044;-72
2022/09/24 02:02:06;;;;;;;26.48;14.40;;;13.10;99.90;;;;;;5039293;28;20512;-72
2022/09/24 02:04:44;;;;;;;24.08;14.32;;;13.10;99.90;;;;;;5055583;28;20145;-72
2022/09/24 02:07:18;;;;;;;24.55;13.93;;;13.10;99.90;;;;;;5039263;28;20044;-72
2022/09/24 02:09:44;;;;;;;20.23;13.98;;;13.10;99.90;;;;;;5055588;28;20078;-72
2022/09/24 02:12:28;;;;;;;23.38;14.23;;;13.10;99.90;;;;;;5055745;28;20087;-73
2022/09/24 02:15:00;;;;;;;26.58;14.32;;;13.10;99.90;;;;;;5055441;28;20059;-72
2022/09/24 02:17:29;;;;;;;23.27;13.60;;;13.10;99.90;;;;;;5038795;28;20201;-72
2022/09/24 02:19:59;;;;;;;23.73;13.95;;;13.10;99.90;;;;;;5055370;28;20064;-72
2022/09/24 02:22:25;;;;;;;27.20;14.40;;;13.10;99.90;;;;;;5055457;28;20079;-72
2022/09/24 02:24:54;;;;;;;23.08;13.30;;;13.10;99.90;;;;;;5015999;28;1139076;-72
2022/09/24 02:27:20;;;;;;;23.15;13.85;;;13.10;99.90;;;;;;5056291;28;20515;-72
2022/09/24 02:29:46;;;;;;;18.80;13.63;;;13.10;99.90;;;;;;5023056;28;20040;-72
2022/09/24 02:32:16;;;;;;;25.48;14.75;;;13.00;99.90;;;;;;5056016;28;20040;-73
2022/09/24 02:34:47;;;;;;;22.80;13.77;;;13.10;99.90;;;;;;5055788;28;20032;-72
2022/09/24 02:37:15;;;;;;;23.73;14.23;;;13.10;99.90;;;;;;5056014;28;20498;-73
2022/09/24 02:39:41;;;;;;;29.48;15.43;;;13.10;99.90;;;;;;5055889;28;20040;-72
2022/09/24 02:42:10;;;;;;;26.45;14.85;;;13.10;99.90;;;;;;5055779;28;20040;-72
2022/09/24 02:44:36;;;;;;;24.17;14.35;;;13.10;99.90;;;;;;5055831;28;20045;-72
2022/09/24 02:47:02;;;;;;;26.50;14.80;;;13.10;99.90;;;;;;5039202;28;20178;-73
2022/09/24 02:49:28;;;;;;;22.73;14.25;;;13.10;99.90;;;;;;5039107;28;20040;-72
2022/09/24 02:51:54;;;;;;;33.03;15.32;;;13.10;99.90;;;;;;5055664;28;20435;-72
2022/09/24 02:54:21;;;;;;;24.58;14.02;;;13.10;99.90;;;;;;5055899;28;20044;-72
2022/09/24 02:56:47;;;;;;;24.92;14.27;;;13.10;99.90;;;;;;5055886;28;20051;-72
2022/09/24 02:59:13;;;;;;;21.73;13.70;;;13.10;99.90;;;;;;5039212;28;20037;-72
2022/09/24 03:01:39;;;;;;;22.52;13.77;;;13.00;99.90;;;;;;5039229;28;20502;-72
2022/09/24 03:04:05;;;;;;;22.20;13.25;;;13.00;99.90;;;;;;5055439;28;20123;-73
2022/09/24 03:06:31;;;;;;;19.60;12.70;;;13.00;99.90;;;;;;5039174;28;20123;-72
2022/09/24 03:08:56;;;;;;;23.77;14.60;;;13.00;99.90;;;;;;5055431;28;20047;-72
2022/09/24 03:11:23;;;;;;;22.50;13.50;;;13.00;99.90;;;;;;5055317;28;20127;-72
2022/09/24 03:13:49;;;;;;;22.88;14.25;;;13.00;99.90;;;;;;5022354;28;20067;-72
2022/09/24 03:16:16;;;;;;;21.20;12.77;;;13.00;99.90;;;;;;5038725;28;20117;-72
2022/09/24 03:18:42;;;;;;;21.90;14.15;;;12.90;99.90;;;;;;5038742;28;20036;-72
2022/09/24 03:21:11;;;;;;;23.63;14.32;;;13.00;99.90;;;;;;5038644;28;20094;-73
2022/09/24 03:23:37;;;;;;;27.23;15.23;;;13.00;99.90;;;;;;5038566;28;20052;-72
2022/09/24 03:26:03;;;;;;;19.58;12.95;;;13.00;99.90;;;;;;5038584;28;20055;-73
2022/09/24 03:28:30;;;;;;;24.02;12.93;;;13.00;99.90;;;;;;5055191;28;20043;-72
2022/09/24 03:30:59;;;;;;;22.50;13.45;;;13.00;99.90;;;;;;5055203;28;20097;-72
2022/09/24 03:33:32;;;;;;;28.63;14.80;;;13.00;99.90;;;;;;5055133;28;20429;-72
2022/09/24 03:36:01;;;;;;;23.48;13.68;;;13.00;99.90;;;;;;5039874;28;20040;-72
2022/09/24 03:38:28;;;;;;;22.48;13.35;;;13.00;99.90;;;;;;5055129;28;20032;-72
2022/09/24 03:40:54;;;;;;;22.77;13.75;;;13.00;99.90;;;;;;5038766;28;20488;-72
2022/09/24 03:43:21;;;;;;;23.23;13.82;;;13.00;99.90;;;;;;5054987;28;20044;-72
2022/09/24 03:45:48;;;;;;;21.95;13.18;;;13.00;99.90;;;;;;5054957;28;20062;-72
2022/09/24 03:48:14;;;;;;;21.50;13.25;;;13.00;99.90;;;;;;5057063;28;20062;-72
2022/09/24 03:50:40;;;;;;;23.50;13.95;;;13.20;99.90;;;;;;5042458;28;20048;-73
2022/09/24 03:53:06;;;;;;;22.15;14.20;;;13.00;99.90;;;;;;5058963;28;20040;-72
2022/09/24 03:55:32;;;;;;;22.98;13.52;;;13.10;99.90;;;;;;5042421;28;20126;-72
2022/09/24 03:57:57;;;;;;;26.80;15.13;;;13.00;99.90;;;;;;5058855;28;20527;-72
2022/09/24 04:00:23;;;;;;;23.83;12.93;;;13.00;99.90;;;;;;5025798;28;20047;-72
2022/09/24 04:02:49;;;;;;;25.50;14.50;;;13.00;99.90;;;;;;5058859;28;20075;-72
2022/09/24 04:05:15;;;;;;;21.67;12.93;;;13.00;99.90;;;;;;5058991;28;20063;-72
2022/09/24 04:07:44;;;;;;;24.70;14.43;;;13.00;99.90;;;;;;5058811;28;20040;-72
2022/09/24 04:10:10;;;;;;;20.63;13.02;;;13.00;99.90;;;;;;5042069;28;20055;-73
2022/09/24 04:12:36;;;;;;;22.95;13.18;;;13.00;99.90;;;;;;5058751;28;20037;-72
2022/09/24 04:15:02;;;;;;;27.75;14.48;;;12.90;99.90;;;;;;5041984;28;20040;-72
2022/09/24 04:17:31;;;;;;;24.42;13.68;;;13.00;99.90;;;;;;5042019;28;20071;-72
2022/09/24 04:19:57;;;;;;;21.08;13.65;;;12.90;99.90;;;;;;5058590;28;20117;-72
2022/09/24 04:22:24;;;;;;;30.25;13.15;;;12.90;99.90;;;;;;5058410;28;20048;-72
2022/09/24 04:24:51;;;;;;;19.85;12.73;;;12.90;99.90;;;;;;5041688;28;20048;-72
2022/09/24 04:27:17;;;;;;;24.73;13.93;;;13.00;99.90;;;;;;5041997;28;20135;-72
2022/09/24 04:29:43;;;;;;;23.73;13.35;;;12.90;99.90;;;;;;5041884;28;20048;-72
2022/09/24 04:32:09;;;;;;;28.17;15.02;;;12.90;99.90;;;;;;5058317;28;20043;-72
2022/09/24 04:34:34;;;;;;;28.85;15.38;;;12.90;99.90;;;;;;5058299;28;20055;-72
2022/09/24 04:37:00;;;;;;;22.70;13.93;;;12.90;99.90;;;;;;5042016;28;20051;-72
2022/09/24 04:39:26;;;;;;;22.80;13.70;;;12.90;99.90;;;;;;5041559;28;20047;-73
2022/09/24 04:41:55;;;;;;;30.55;15.73;;;12.90;99.90;;;;;;5041675;28;20050;-72
2022/09/24 04:44:22;;;;;;;21.75;13.52;;;13.00;99.90;;;;;;5041523;28;20045;-72
2022/09/24 04:46:48;;;;;;;23.17;13.57;;;12.90;99.90;;;;;;5041748;28;20040;-73
2022/09/24 04:49:14;;;;;;;29.88;14.93;;;12.90;99.90;;;;;;5058236;28;20458;-72
2022/09/24 04:51:40;;;;;;;25.77;14.23;;;12.90;99.90;;;;;;5058221;28;20037;-72
2022/09/24 04:54:08;;;;;;;28.75;14.50;;;12.90;99.90;;;;;;5057806;28;20076;-72
2022/09/24 04:56:33;;;;;;;20.30;13.52;;;12.90;99.90;;;;;;5058050;28;20029;-72
2022/09/24 04:58:59;;;;;;;24.90;14.07;;;12.90;99.90;;;;;;5057341;28;20108;-72
2022/09/24 05:01:25;;;;;;;27.80;14.05;;;12.90;99.90;;;;;;5057654;28;20424;-72
2022/09/24 05:03:52;;;;;;;29.15;14.57;;;12.90;99.90;;;;;;5057882;28;20128;-72
2022/09/24 05:06:18;;;;;;;24.83;14.30;;;13.00;99.90;;;;;;5024730;28;20389;-72
2022/09/24 05:08:43;;;;;;;27.60;14.55;;;12.90;99.90;;;;;;5041027;28;20047;-72
2022/09/24 05:11:09;;;;;;;28.13;13.98;;;12.90;99.90;;;;;;5057438;28;20036;-73
2022/09/24 05:13:35;;;;;;;24.35;14.75;;;12.90;99.90;;;;;;5041126;28;20055;-72
2022/09/24 05:16:02;;;;;;;21.33;13.23;;;13.00;99.90;;;;;;5057784;28;20125;-72
2022/09/24 05:18:27;;;;;;;20.58;12.45;;;12.90;99.90;;;;;;5057316;28;20043;-72
2022/09/24 05:20:53;;;;;;;29.30;14.40;;;13.00;99.90;;;;;;5024328;28;20040;-73
2022/09/24 05:23:19;;;;;;;23.65;13.25;;;13.00;99.90;;;;;;5057383;28;20476;-73
2022/09/24 05:28:31;;;;;;;28.80;14.38;;;12.90;99.90;;;;;;5057181;28;20044;-73
2022/09/24 05:30:58;;;;;;;27.10;14.73;;;13.00;99.90;;;;;;5040898;28;20044;-72
2022/09/24 05:33:24;;;;;;;31.25;14.57;;;13.00;99.90;;;;;;5040491;28;20125;-73
2022/09/24 05:35:57;;;;;;;23.35;14.15;;;12.90;99.90;;;;;;5057155;28;20136;-73
2022/09/24 05:38:23;;;;;;;25.58;14.00;;;12.90;99.90;;;;;;5075233;28;20044;-73
2022/09/24 05:40:49;;;;;;;24.15;14.18;;;13.00;99.90;;;;;;5057005;28;20047;-72
2022/09/24 05:43:18;;;;;;;24.95;14.45;;;13.00;99.90;;;;;;5040573;28;20048;-72
2022/09/24 05:45:44;;;;;;;24.63;13.15;;;13.00;99.90;;;;;;5040411;28;20128;-72
2022/09/24 05:48:10;;;;;;;23.73;14.35;;;13.00;99.90;;;;;;5056841;28;20040;-73
2022/09/24 05:50:36;;;;;;;23.45;13.65;;;12.90;99.90;;;;;;5056755;28;20040;-73
2022/09/24 05:53:04;;;;;;;30.02;14.80;;;13.00;99.90;;;;;;5057028;28;20037;-73
2022/09/24 05:55:30;;;;;;;24.08;13.20;;;12.90;99.90;;;;;;5040094;28;20119;-73
2022/09/24 05:58:06;;;;;;;29.58;14.82;;;13.00;99.90;;;;;;5056695;28;20043;-73
2022/09/24 06:00:32;;;;;;;21.45;13.38;;;13.00;99.90;;;;;;5040095;28;20083;-73
2022/09/24 06:03:15;;;;;;;28.30;13.35;;;13.00;99.90;;;;;;5056509;28;20040;-72
2022/09/24 06:05:49;;;;;;;21.70;12.60;;;13.00;99.90;;;;;;5039989;28;20041;-72
2022/09/24 06:08:16;;;;;;;23.27;13.20;;;13.00;99.90;;;;;;5039849;28;20054;-73
2022/09/24 06:10:44;;;;;;;20.05;12.38;;;13.00;99.90;;;;;;5055547;28;20040;-72
2022/09/24 06:13:10;;;;;;;23.85;12.35;;;13.00;99.90;;;;;;5023409;28;20119;-72
2022/09/24 06:15:37;;;;;;;21.95;12.85;;;13.00;99.90;;;;;;5056560;28;20090;-72
2022/09/24 06:18:04;;;;;;;28.17;13.68;;;13.00;99.90;;;;;;5039615;28;20040;-72
2022/09/24 06:20:31;;;;;;;23.42;13.38;;;13.00;99.90;;;;;;5056759;28;20048;-72
2022/09/24 06:22:56;;;;;;;20.38;12.35;;;13.10;99.90;;;;;;5039758;28;20079;-72
2022/09/24 06:25:26;;;;;;;18.50;11.93;;;13.10;99.90;;;;;;5023400;28;20533;-72
2022/09/24 06:28:00;;;;;;;20.13;11.93;;;13.10;99.90;;;;;;5039750;28;20514;-72
2022/09/24 06:30:37;;;;;;;20.83;11.57;;;13.10;99.90;;;;;;5039225;28;20419;-72
2022/09/24 06:33:09;;;;;;;21.95;12.30;;;13.10;99.90;;;;;;5039956;28;20040;-77
2022/09/24 06:35:36;;;;;;;21.58;12.30;;;13.20;99.90;;;;;;5039509;28;20106;-78
2022/09/24 06:38:03;;;;;;;21.63;13.15;;;13.20;99.90;;;;;;5055814;28;20048;-76
2022/09/24 06:40:29;;;;;;;24.35;12.88;;;13.20;99.90;;;;;;5038979;28;20047;-72
2022/09/24 06:42:54;;;;;;;21.35;12.65;;;13.30;99.90;;;;;;5055795;28;20064;-72
2022/09/24 06:45:20;;;;;;;25.92;14.80;;;13.30;99.90;;;;;;5038999;28;20040;-73
2022/09/24 06:47:52;;;;;;;23.45;13.32;;;13.30;99.90;;;;;;5039128;28;20043;-72
2022/09/24 06:50:18;;;;;;;23.75;13.90;;;13.30;99.90;;;;;;5055373;28;20404;-72
2022/09/24 06:52:43;;;;;;;24.38;13.80;;;13.30;99.90;;;;;;5055396;28;20039;-72
2022/09/24 06:55:09;;;;;;;22.95;13.02;;;13.30;99.90;;;;;;5055349;28;20397;-73
2022/09/24 06:57:35;;;;;;;26.55;13.25;;;13.40;99.90;;;;;;5055313;28;20062;-74
2022/09/24 07:00:01;;;;;;;22.38;12.25;;;13.30;99.90;;;;;;5055027;28;20037;-72
2022/09/24 07:02:27;;;;;;;25.27;13.43;;;13.40;99.90;;;;;;5022542;28;20044;-73
2022/09/24 07:04:53;;;;;;;22.13;11.88;;;13.40;99.90;;;;;;5038951;28;20049;-72
2022/09/24 07:07:32;;;;;;;20.52;12.32;;;13.40;99.90;;;;;;5038828;28;20387;-72
2022/09/24 07:10:00;;;;;;;26.38;12.88;;;13.50;99.90;;;;;;5055011;28;20080;-73
2022/09/24 07:12:28;;;;;;;23.23;11.70;;;13.50;99.90;;;;;;5055640;28;20040;-73
2022/09/24 07:14:54;;;;;;;20.42;12.48;;;13.50;99.90;;;;;;5038831;28;20444;-73
2022/09/24 07:17:20;;;;;;;21.20;12.50;;;13.50;99.90;;;;;;5055497;28;20040;-72
2022/09/24 07:19:45;;;;;;;21.17;12.15;;;13.60;99.90;;;;;;5055515;28;20044;-73
2022/09/24 07:22:11;;;;;;;20.45;11.90;;;13.60;99.90;;;;;;5055322;28;20041;-72
2022/09/24 07:24:37;;;;;;;21.08;10.60;;;13.60;99.90;;;;;;5055005;28;20049;-76
2022/09/24 07:27:07;;;;;;;19.67;11.07;;;13.60;99.90;;;;;;5055417;28;20488;-73
2022/09/24 07:29:33;;;;;;;14.38;6.18;;;13.60;99.90;;;;;;5055072;28;20040;-73
2022/09/24 07:31:59;;;;;;;10.13;5.55;;;13.60;99.90;;;;;;5038498;28;20032;-74
2022/09/24 07:34:25;;;;;;;6.80;3.70;;;13.70;99.90;;;;;;5055076;28;20080;-74
2022/09/24 07:36:51;;;;;;;7.00;3.10;;;13.80;99.90;;;;;;5055145;28;20546;-74
2022/09/24 07:39:17;;;;;;;5.43;2.88;;;13.80;99.90;;;;;;5055069;28;20059;-75
2022/09/24 07:41:43;;;;;;;5.15;2.72;;;13.80;99.90;;;;;;5038851;28;20044;-78
2022/09/24 07:44:09;;;;;;;3.17;1.67;;;13.80;99.90;;;;;;5038502;28;20047;-79
2022/09/24 07:46:34;;;;;;;5.78;1.98;;;13.80;99.90;;;;;;5038350;28;20447;-75
2022/09/24 07:49:00;;;;;;;4.60;1.63;;;13.90;99.90;;;;;;5055210;28;20043;-75
2022/09/24 07:51:27;;;;;;;1.92;0.95;;;13.90;99.90;;;;;;5038158;28;20044;-79
2022/09/24 07:53:57;;;;;;;5.80;1.38;;;13.90;99.90;;;;;;5038639;28;20457;-79
2022/09/24 07:56:23;;;;;;;2.65;0.80;;;14.00;99.90;;;;;;5038365;28;20044;-78
2022/09/24 07:58:51;;;;;;;1.90;0.70;;;14.00;99.90;;;;;;5055152;28;20033;-78
2022/09/24 08:01:18;;;;;;;5.72;1.00;;;14.10;99.90;;;;;;5038479;28;20044;-78
2022/09/24 08:03:45;;;;;;;3.78;0.60;;;14.20;99.90;;;;;;5054887;28;20139;-78
2022/09/24 08:06:11;;;;;;;1.73;0.75;;;14.20;99.90;;;;;;5054920;28;20044;-76
2022/09/24 08:08:37;;;;;;;2.10;1.02;;;14.30;99.90;;;;;;5037880;28;20037;-74
2022/09/24 08:11:05;;;;;;;3.80;0.73;;;14.40;99.90;;;;;;5038247;28;20094;-73
2022/09/24 08:13:30;;;;;;;2.80;1.02;;;14.50;99.90;;;;;;5054754;28;20095;-73
2022/09/24 08:16:00;;;;;;;0.95;0.60;;;14.50;99.90;;;;;;5038172;28;20495;-72
2022/09/24 08:18:27;;;;;;;0.60;0.50;;;14.60;99.90;;;;;;5054913;28;20403;-73
2022/09/24 08:20:53;;;;;;;2.15;1.02;;;14.80;99.90;;;;;;5038377;28;20207;-72
2022/09/24 08:23:22;;;;;;;1.08;0.73;;;14.80;99.90;;;;;;5054321;28;20048;-73
2022/09/24 08:25:48;;;;;;;0.55;0.52;;;14.80;99.90;;;;;;5054482;28;20054;-73
2022/09/24 08:28:15;;;;;;;2.88;0.55;;;14.70;99.90;;;;;;5038146;28;20036;-73
2022/09/24 08:30:43;;;;;;;1.48;0.50;;;14.70;99.90;;;;;;5054688;28;20090;-73
2022/09/24 08:33:09;;;;;;;4.90;0.82;;;14.60;99.90;;;;;;5054601;28;20040;-73
2022/09/24 08:35:35;;;;;;;0.88;0.60;;;14.60;99.90;;;;;;5025189;28;20147;-73
2022/09/24 08:38:02;;;;;;;1.30;0.57;;;14.60;99.90;;;;;;5058143;28;20048;-77
2022/09/24 08:41:09;;;;;;;3.40;0.63;;;14.60;99.90;;;;;;5058046;28;20040;-77
2022/09/24 08:43:59;;;;;;;0.80;0.40;;;14.50;99.90;;;;;;5014869;28;20052;-77
2022/09/24 08:49:36;;;;;;;1.27;0.52;;;14.50;99.90;;;;;;5057789;28;20135;-76
2022/09/24 08:52:31;;;;;;;5.45;0.70;;;14.40;99.90;;;;;;5058183;28;20037;-73
2022/09/24 08:55:03;;;;;;;1.27;0.63;;;14.40;99.90;;;;;;5057769;28;20040;-73
2022/09/24 08:57:36;;;;;;;4.97;0.73;;;14.40;99.90;;;;;;5058047;28;20040;-73
2022/09/24 09:00:02;;;;;;;4.82;0.73;;;14.40;99.90;;;;;;5057811;28;20045;-73
2022/09/24 09:02:37;;;;;;;4.93;0.88;;;14.40;99.90;;;;;;5041271;28;20102;-73
2022/09/24 09:05:14;;;;;;;0.65;0.50;;;14.40;99.90;;;;;;5057883;28;20484;-73
2022/09/24 09:07:46;;;;;;;1.45;0.50;;;14.40;99.90;;;;;;5057608;28;20373;-73
2022/09/24 09:10:36;;;;;;;8.20;1.13;;;14.40;99.90;;;;;;5057444;28;20040;-73
2022/09/24 09:13:14;;;;;;;1.90;0.70;;;14.40;99.90;;;;;;5040967;28;20052;-73
2022/09/24 09:15:45;;;;;;;0.85;0.52;;;14.40;99.90;;;;;;5057457;28;20036;-73
2022/09/24 09:18:11;;;;;;;;;;;14.40;99.90;;;;;;5057763;28;20122;-73
2022/09/24 09:20:43;;;;;;;6.50;1.02;;;14.50;99.90;;;;;;5057621;28;20335;-74
2022/09/24 09:23:18;;;;;;;1.77;0.60;;;14.50;99.90;;;;;;5057031;28;20082;-74
2022/09/24 09:25:58;;;;;;;2.08;0.70;;;14.50;99.90;;;;;;5057288;28;20052;-73
2022/09/24 09:28:28;;;;;;;3.75;0.63;;;14.60;99.90;;;;;;5041133;28;20400;-73
2022/09/24 09:31:12;;;;;;;0.68;0.60;;;14.60;99.90;;;;;;5024014;28;20051;-73
2022/09/24 09:34:02;;;;;;;1.15;0.55;;;14.60;99.90;;;;;;5057108;28;20119;-77
2022/09/24 09:36:52;;;;;;;2.50;0.47;;;14.60;99.90;;;;;;5056996;28;20400;-77
2022/09/24 09:39:55;;;;;;;4.07;0.80;;;14.50;99.90;;;;;;5040325;28;20119;-77
2022/09/24 09:42:31;;;;;;;0.45;0.45;;;14.50;99.90;;;;;;5040481;28;20396;-77
2022/09/24 09:45:01;;;;;;;1.85;0.60;;;14.50;99.90;;;;;;5039187;28;20047;-77
2022/09/24 09:47:48;;;;;;;3.72;0.82;;;14.50;99.90;;;;;;5056867;28;20037;-77
2022/09/24 09:50:42;;;;;;;3.03;0.63;;;14.50;99.90;;;;;;5056711;28;20044;-76
2022/09/24 09:53:19;;;;;;;0.70;0.43;;;14.40;99.90;;;;;;5040037;28;20047;-73
2022/09/24 09:55:52;;;;;;;7.15;0.70;;;14.40;99.90;;;;;;5056710;28;20076;-79
2022/09/24 09:58:22;;;;;;;1.85;0.80;;;14.40;99.90;;;;;;5056808;28;20036;-76
2022/09/24 10:00:48;;;;;;;1.55;0.47;;;14.40;99.90;;;;;;5040141;28;20083;-78
2022/09/24 10:03:43;;;;;;;0.98;0.45;;;14.40;99.90;;;;;;5056791;28;20460;-78
2022/09/24 10:06:11;;;;;;;2.15;0.73;;;14.40;99.90;;;;;;5037730;28;20048;-77
2022/09/24 10:08:37;;;;;;;3.30;1.10;;;14.40;99.90;;;;;;5039737;28;20044;-77
2022/09/24 10:11:03;;;;;;;2.10;0.68;;;14.40;99.90;;;;;;5039805;28;20048;-73
2022/09/24 10:13:31;;;;;;;2.90;0.60;;;14.40;99.90;;;;;;5039713;28;20323;-74
2022/09/24 10:16:07;;;;;;;1.60;0.60;;;14.40;99.90;;;;;;5056241;28;20060;-74
2022/09/24 10:18:48;;;;;;;1.17;0.57;;;14.50;99.90;;;;;;5056215;28;20050;-78
2022/09/24 10:21:26;;;;;;;1.77;0.50;;;14.50;99.90;;;;;;5055746;28;20048;-78
2022/09/24 10:23:59;;;;;;;7.28;0.82;;;14.60;99.90;;;;;;5056099;28;20136;-77
2022/09/24 10:26:39;;;;;;;1.98;1.15;;;14.60;99.90;;;;;;5056050;28;20059;-77
2022/09/24 10:31:59;;;;;;;0.88;0.43;;;14.60;99.90;;;;;;5055987;28;20140;-77
2022/09/24 10:34:27;;;;;;;3.78;0.80;;;14.60;99.90;;;;;;5039908;28;20068;-77
2022/09/24 10:37:13;;;;;;;1.92;0.60;;;14.50;99.90;;;;;;5056012;28;20047;-76
2022/09/24 10:39:39;;;;;;;1.23;0.50;;;14.50;99.90;;;;;;5055892;28;20036;-75
2022/09/24 10:42:06;;;;;;;0.93;0.60;;;14.50;99.90;;;;;;5022830;28;20047;-77
2022/09/24 10:44:36;;;;;;;3.83;0.55;;;14.50;99.90;;;;;;5039331;28;20044;-75
2022/09/24 10:47:26;;;;;;;2.00;0.60;;;14.40;99.90;;;;;;5055749;28;20048;-76
2022/09/24 10:50:23;;;;;;;0.93;0.60;;;14.60;99.90;;;;;;5055625;28;20037;-73
2022/09/24 10:53:08;;;;;;;0.65;0.43;;;14.60;99.90;;;;;;5055962;28;20387;-73
2022/09/24 10:55:55;;;;;;;0.43;0.38;;;14.50;99.90;;;;;;5055906;28;20043;-73
2022/09/24 10:58:36;;;;;;;1.13;0.55;;;14.50;99.90;;;;;;5055721;28;20041;-74
2022/09/24 11:01:07;;;;;;;;;;;14.50;99.90;;;;;;5039301;28;20055;-73
2022/09/24 11:03:52;;;;;;;1.70;0.40;;;14.50;99.90;;;;;;5055525;28;19963;-73
2022/09/24 11:07:04;;;;;;;2.17;0.75;;;14.50;99.90;;;;;;5055408;28;20044;-74
2022/09/24 11:09:57;;;;;;;1.05;0.38;;;14.50;99.90;;;;;;5044611;28;20109;-73
2022/09/24 11:13:00;;;;;;;1.00;0.50;;;14.50;99.90;;;;;;5038738;28;20450;-73
2022/09/24 11:16:00;;;;;;;1.65;1.02;;;14.40;99.90;;;;;;5055517;28;20472;-73
2022/09/24 11:18:28;;;;;;;2.33;0.73;;;14.50;99.90;;;;;;5038473;28;20123;-74
2022/09/24 11:21:12;;;;;;;0.88;0.40;;;14.40;99.90;;;;;;5055473;28;20080;-73
2022/09/24 11:23:56;;;;;;;1.60;0.55;;;14.40;99.90;;;;;;5054916;28;20057;-74
2022/09/24 11:26:32;;;;;;;0.85;0.52;;;14.40;99.90;;;;;;5055026;28;20084;-75
2022/09/24 11:29:03;;;;;;;0.85;0.32;;;14.40;99.90;;;;;;5055336;28;20049;-74
2022/09/24 11:31:35;;;;;;;1.30;0.60;;;14.40;99.90;;;;;;5055082;28;20040;-74
2022/09/24 11:34:37;;;;;;;1.92;0.68;;;14.40;99.90;;;;;;5055323;28;20039;-74
2022/09/24 11:37:44;;;;;;;8.73;0.88;;;14.40;99.90;;;;;;5052138;28;20049;-76
2022/09/24 11:40:13;;;;;;;2.58;0.68;;;14.40;99.90;;;;;;5054954;28;20093;-75
2022/09/24 11:43:00;;;;;;;1.08;0.60;;;14.40;99.90;;;;;;5054981;28;20106;-75
2022/09/24 11:45:35;;;;;;;1.95;0.77;;;14.40;99.90;;;;;;5054844;28;20041;-75
2022/09/24 11:48:21;;;;;;;1.05;0.65;;;14.40;99.90;;;;;;5054790;28;20083;-75
2022/09/24 11:50:58;;;;;;;0.77;0.40;;;14.40;99.90;;;;;;5053585;28;20500;-75
2022/09/24 11:53:46;;;;;;;0.60;0.50;;;14.40;99.90;;;;;;5054893;28;20097;-74
2022/09/24 11:56:23;;;;;;;4.22;0.40;;;14.40;99.90;;;;;;5038199;28;20039;-74
2022/09/24 11:58:59;;;;;;;1.08;0.40;;;14.40;99.90;;;;;;5054755;28;20044;-75
2022/09/24 12:01:33;;;;;;;0.80;0.40;;;14.40;99.90;;;;;;5054891;28;20050;-74
2022/09/24 12:04:10;;;;;;;0.95;0.40;;;14.40;99.90;;;;;;5054769;28;20044;-74
2022/09/24 12:06:42;;;;;;;3.25;0.60;;;14.40;99.90;;;;;;5054811;28;20102;-78
2022/09/24 12:09:23;;;;;;;0.95;0.40;;;14.30;99.90;;;;;;5056835;28;20373;-83
2022/09/24 12:12:06;;;;;;;1.63;0.30;;;14.30;99.90;;;;;;5058975;28;20128;-75
2022/09/24 12:14:56;;;;;;;1.38;0.55;;;14.30;99.90;;;;;;5059189;28;20089;-76
2022/09/24 12:17:39;;;;;;;1.45;0.68;;;14.30;99.90;;;;;;5058482;28;20040;-76
2022/09/24 12:20:30;;;;;;;4.82;1.17;;;14.30;99.90;;;;;;5058380;28;20045;-76
2022/09/24 12:23:03;;;;;;;1.15;0.55;;;14.20;99.90;;;;;;5048641;28;20052;-76
2022/09/24 12:25:35;;;;;;;2.03;0.40;;;14.20;99.90;;;;;;5058401;28;20044;-76
2022/09/24 12:28:01;;;;;;;0.68;0.43;;;14.20;99.90;;;;;;5042386;28;20044;-76
2022/09/24 12:33:49;;;;;;;1.48;0.68;;;14.20;99.90;;;;;;5058230;28;20052;-76
2022/09/24 12:36:41;;;;;;;2.95;0.60;;;14.10;99.90;;;;;;5058504;28;20396;-76
2022/09/24 12:39:11;;;;;;;2.88;0.40;;;14.10;99.90;;;;;;5058142;28;20037;-76
2022/09/24 12:41:45;;;;;;;3.40;0.50;;;14.30;99.90;;;;;;5058238;28;20107;-76
2022/09/24 12:44:11;;;;;;;1.52;0.50;;;14.10;99.90;;;;;;5058382;28;20047;-75
2022/09/24 12:46:41;;;;;;;1.30;0.50;;;14.10;99.90;;;;;;5041790;28;20123;-75
2022/09/24 12:49:25;;;;;;;1.48;0.50;;;14.10;99.90;;;;;;5057919;28;20051;-75
2022/09/24 12:51:53;;;;;;;1.42;0.43;;;14.10;99.90;;;;;;5057957;28;20055;-75
2022/09/24 12:54:32;;;;;;;0.47;0.47;;;14.00;99.90;;;;;;5057810;28;20036;-76
2022/09/24 12:57:22;;;;;;;0.40;0.40;;;14.10;99.90;;;;;;5057814;28;20044;-76
2022/09/24 13:00:00;;;;;;;1.13;0.70;;;14.00;99.90;;;;;;5057792;28;20047;-76
2022/09/24 13:02:30;;;;;;;1.10;0.73;;;13.90;99.90;;;;;;5057741;28;20048;-76
2022/09/24 13:05:01;;;;;;;0.60;0.50;;;13.90;99.90;;;;;;5041087;28;20051;-76
2022/09/24 13:07:34;;;;;;;0.85;0.60;;;13.90;99.90;;;;;;5057963;28;20413;-76
2022/09/24 13:10:15;;;;;;;1.65;0.60;;;13.90;99.90;;;;;;5057628;28;20048;-76
2022/09/24 13:12:41;;;;;;;0.93;0.60;;;13.90;99.90;;;;;;5057683;28;20044;-76